Time;durP1;ratioP1;P1;durP2;ratioP2;P2;SDS_P1;SDS_P2;PMS_P1;PMS_P2;Temp;Humidity;BMP_temperature;BMP_pressure;BME280_temperature;BME280_humidity;BME280_pressure;Samples;Min_cycle;Max_cycle;Signal;HPM_P1;HPM_P2
2022/06/11 00:01:19;;;;;;;6.62;3.22;;;;;;;15.83;75.37;99681.16;1750710;81;21035;-51
2022/06/11 00:03:48;;;;;;;4.25;3.40;;;;;;;15.77;75.44;99680.25;1750866;82;21002;-52
2022/06/11 00:06:16;;;;;;;5.10;3.67;;;;;;;15.73;76.06;99673.82;1750737;82;21468;-49
2022/06/11 00:08:43;;;;;;;;;;;;;;;15.72;75.91;99674.77;1753358;82;21528;-50
2022/06/11 00:11:10;;;;;;;6.85;3.85;;;;;;;15.67;76.91;99674.23;1750733;82;20115;-50
2022/06/11 00:13:37;;;;;;;4.62;3.80;;;;;;;15.68;76.36;99673.75;1750863;82;20971;-50
2022/06/11 00:16:03;;;;;;;8.23;3.80;;;;;;;15.67;75.83;99675.56;1750995;82;21046;-53
2022/06/11 00:18:31;;;;;;;4.50;3.67;;;;;;;15.68;75.86;99677.72;1750951;82;20989;-49
2022/06/11 00:20:57;;;;;;;6.67;3.75;;;;;;;15.64;76.14;99673.60;1750742;82;21002;-50
2022/06/11 00:23:23;;;;;;;4.78;4.00;;;;;;;15.64;75.73;99677.09;1750806;81;21040;-53
2022/06/11 00:25:49;;;;;;;7.25;4.03;;;;;;;15.60;76.04;99678.27;1750695;82;20999;-54
2022/06/11 00:28:15;;;;;;;6.00;4.05;;;;;;;15.54;76.45;99682.69;1750972;82;20959;-52
2022/06/11 00:30:41;;;;;;;4.97;3.80;;;;;;;15.57;76.44;99676.31;1750724;81;21035;-52
2022/06/11 00:33:07;;;;;;;4.40;3.75;;;;;;;15.54;76.24;99678.71;1750703;82;21027;-51
2022/06/11 00:35:35;;;;;;;7.20;4.28;;;;;;;15.49;76.86;99679.50;1750749;82;20991;-51
2022/06/11 00:38:02;;;;;;;4.85;4.30;;;;;;;15.46;76.82;99676.60;1750812;82;21559;-49
2022/06/11 00:40:30;;;;;;;5.10;3.83;;;;;;;15.47;77.41;99682.73;1750939;82;21484;-54
2022/06/11 00:42:56;;;;;;;6.53;4.12;;;;;;;15.47;77.19;99682.73;1750695;82;20999;-53
2022/06/11 00:45:33;;;;;;;5.25;4.00;;;;;;;15.46;77.15;99683.23;1750852;82;21035;-51
2022/06/11 00:48:04;;;;;;;11.15;4.22;;;;;;;15.44;77.10;99679.81;1752743;81;20995;-54
2022/06/11 00:50:41;;;;;;;6.42;4.33;;;;;;;15.41;77.07;99680.05;1757449;81;20999;-53
2022/06/11 00:53:34;;;;;;;6.95;4.50;;;;;;;15.40;77.49;99682.31;1758814;81;21555;-51
2022/06/11 00:56:02;;;;;;;8.38;4.12;;;;;;;15.39;77.06;99683.73;1758753;81;21034;-54
2022/06/11 00:58:37;;;;;;;7.30;4.30;;;;;;;15.38;77.15;99684.22;1758791;81;21540;-54
2022/06/11 01:01:06;;;;;;;5.08;3.55;;;;;;;15.35;77.07;99685.30;1758743;81;21050;-54
2022/06/11 01:03:37;;;;;;;4.47;4.08;;;;;;;15.34;77.37;99684.06;1758727;81;21007;-53
2022/06/11 01:06:26;;;;;;;5.67;3.98;;;;;;;15.32;77.40;99684.17;1758793;81;21038;-49
2022/06/11 01:09:15;;;;;;;4.65;3.85;;;;;;;15.30;77.15;99686.08;1758450;81;21488;-53
2022/06/11 01:12:17;;;;;;;5.92;4.30;;;;;;;15.29;77.61;99681.72;1758644;81;21003;-49
2022/06/11 01:15:16;;;;;;;6.35;4.20;;;;;;;15.26;78.03;99681.08;1757761;81;21038;-50
2022/06/11 01:18:06;;;;;;;5.47;3.83;;;;;;;15.24;77.61;99677.69;1758675;81;21027;-49
2022/06/11 01:20:56;;;;;;;5.78;3.47;;;;;;;15.21;77.53;99675.24;1758727;81;21515;-51
2022/06/11 01:23:56;;;;;;;5.37;4.12;;;;;;;15.16;77.35;99676.90;1758670;81;21599;-50
2022/06/11 01:27:02;;;;;;;5.10;4.17;;;;;;;15.11;77.88;99680.33;1758648;81;20995;-54
2022/06/11 01:29:54;;;;;;;13.33;4.10;;;;;;;15.08;78.67;99681.85;1725389;81;20959;-54
2022/06/11 01:32:37;;;;;;;8.65;3.77;;;;;;;15.02;78.94;99680.47;1758369;81;21003;-52
2022/06/11 01:35:20;;;;;;;6.25;4.33;;;;;;;15.01;79.23;99682.77;1758660;81;21519;-52
2022/06/11 01:37:53;;;;;;;4.70;4.00;;;;;;;15.00;79.68;99681.55;1758528;81;20967;-54
2022/06/11 01:40:42;;;;;;;13.43;4.25;;;;;;;15.00;79.49;99686.84;1758674;81;21002;-52
2022/06/11 01:43:16;;;;;;;6.97;4.33;;;;;;;14.97;79.62;99680.80;1757870;81;21460;-53
2022/06/11 01:45:43;;;;;;;4.80;4.25;;;;;;;14.90;79.81;99682.16;1758503;81;20990;-53
2022/06/11 01:48:15;;;;;;;6.70;4.17;;;;;;;14.85;79.88;99681.61;1758598;81;21030;-53
2022/06/11 01:50:46;;;;;;;8.10;4.37;;;;;;;14.86;80.12;99677.16;1758738;81;21205;-54
2022/06/11 01:53:26;;;;;;;4.45;4.00;;;;;;;14.82;79.97;99675.19;1758564;81;21535;-53
2022/06/11 01:56:37;;;;;;;8.20;4.05;;;;;;;14.81;80.30;99680.13;1758676;81;20967;-54
2022/06/11 01:59:24;;;;;;;8.95;4.28;;;;;;;14.78;80.21;99675.03;1758120;81;20951;-54
2022/06/11 02:01:58;;;;;;;7.97;4.60;;;;;;;14.73;80.62;99678.45;1757954;81;20959;-56
2022/06/11 02:04:32;;;;;;;3.95;3.65;;;;;;;14.71;80.44;99678.55;1756648;81;21042;-50
2022/06/11 02:07:18;;;;;;;8.73;3.58;;;;;;;14.70;79.96;99680.00;1758102;81;20987;-54
2022/06/11 02:09:58;;;;;;;4.92;4.00;;;;;;;14.67;80.23;99679.71;1758637;81;21054;-52
2022/06/11 02:12:41;;;;;;;9.40;4.00;;;;;;;14.64;80.20;99679.06;1758679;81;21472;-55
2022/06/11 02:15:39;;;;;;;9.18;4.05;;;;;;;14.63;80.17;99673.41;1758645;81;21002;-55
2022/06/11 02:18:10;;;;;;;5.05;3.67;;;;;;;14.62;80.39;99670.38;1752547;81;21163;-55
2022/06/11 02:20:44;;;;;;;9.05;4.65;;;;;;;14.62;80.17;99671.70;1758645;81;21493;-54
2022/06/11 02:23:28;;;;;;;6.37;3.98;;;;;;;14.59;80.47;99672.28;1754137;81;21038;-52
2022/06/11 02:25:58;;;;;;;9.40;4.15;;;;;;;14.58;80.40;99672.38;1736315;81;20979;-54
2022/06/11 02:28:29;;;;;;;12.43;4.30;;;;;;;14.53;81.07;99669.98;1758685;81;20971;-54
2022/06/11 02:31:00;;;;;;;7.90;3.95;;;;;;;14.51;81.04;99670.57;1758619;81;20991;-51
2022/06/11 02:33:29;;;;;;;9.35;4.03;;;;;;;14.49;82.00;99672.47;1757928;81;21006;-53
2022/06/11 02:36:13;;;;;;;7.42;4.22;;;;;;;14.45;82.02;99672.30;1758627;81;21038;-53
2022/06/11 02:38:39;;;;;;;8.33;4.03;;;;;;;14.42;81.90;99671.17;1758657;81;21194;-49
2022/06/11 02:43:31;;;;;;;8.38;4.58;;;;;;;14.48;81.51;99680.51;1800388;79;22968;-48
2022/06/11 02:45:58;;;;;;;10.50;4.83;;;;;;;14.43;82.07;99684.80;1760522;80;21039;-53
2022/06/11 02:48:25;;;;;;;10.28;4.60;;;;;;;14.42;81.80;99684.41;1761898;80;21079;-56
2022/06/11 02:50:51;;;;;;;5.17;4.47;;;;;;;14.41;81.84;99682.72;1762045;81;21599;-57
2022/06/11 02:53:18;;;;;;;7.33;4.75;;;;;;;14.38;81.39;99685.56;1762031;81;21002;-57
2022/06/11 02:55:45;;;;;;;8.73;4.80;;;;;;;14.33;81.94;99679.70;1761749;80;20999;-55
2022/06/11 02:58:12;;;;;;;;;;;;;;;14.31;81.65;99681.61;1764381;81;21050;-54
2022/06/11 03:00:43;;;;;;;7.00;4.45;;;;;;;14.25;81.07;99683.34;1761694;81;20098;-57
2022/06/11 03:03:10;;;;;;;14.30;4.50;;;;;;;14.14;82.33;99684.03;1761472;80;20991;-53
2022/06/11 03:05:37;;;;;;;7.20;5.37;;;;;;;14.14;82.20;99680.90;1761690;81;21042;-53
2022/06/11 03:08:04;;;;;;;7.12;4.47;;;;;;;14.13;82.66;99684.95;1761848;80;21127;-52
2022/06/11 03:10:31;;;;;;;6.10;4.22;;;;;;;14.11;82.81;99683.73;1761829;80;21515;-50
2022/06/11 03:12:57;;;;;;;11.40;5.03;;;;;;;14.11;83.03;99687.70;1761957;81;20994;-53
2022/06/11 03:15:25;;;;;;;6.53;4.92;;;;;;;14.11;82.38;99689.02;1761948;80;21405;-52
2022/06/11 03:17:53;;;;;;;6.10;4.62;;;;;;;14.11;82.67;99686.86;1761713;81;21501;-53
2022/06/11 03:20:22;;;;;;;9.40;4.37;;;;;;;14.11;82.46;99687.70;1761704;81;20963;-52
2022/06/11 03:22:49;;;;;;;9.30;4.83;;;;;;;14.11;82.14;99690.34;1761721;81;20995;-50
2022/06/11 03:25:16;;;;;;;10.88;4.70;;;;;;;14.10;82.21;99687.34;1761606;80;21452;-51
2022/06/11 03:27:43;;;;;;;8.60;4.08;;;;;;;14.07;82.06;99688.00;1761858;81;21483;-49
2022/06/11 03:30:12;;;;;;;5.40;4.45;;;;;;;13.97;83.04;99686.39;1761768;80;21050;-51
2022/06/11 03:32:38;;;;;;;7.42;4.80;;;;;;;13.99;81.96;99693.30;1761668;81;21115;-52
2022/06/11 03:35:05;;;;;;;7.00;4.70;;;;;;;13.97;82.54;99689.91;1761693;81;20999;-53
2022/06/11 03:37:32;;;;;;;14.87;4.33;;;;;;;13.92;83.63;99695.11;1761805;81;21003;-53
2022/06/11 03:39:58;;;;;;;5.37;4.25;;;;;;;13.89;83.74;99697.45;1761795;81;21430;-51
2022/06/11 03:42:24;;;;;;;6.95;4.65;;;;;;;13.94;83.31;99694.54;1755569;81;20980;-53
2022/06/11 03:44:51;;;;;;;5.92;4.62;;;;;;;13.97;83.32;99691.69;1748670;81;21011;-57
2022/06/11 03:47:17;;;;;;;5.55;4.72;;;;;;;14.00;83.14;99695.47;1748636;81;21004;-54
2022/06/11 03:49:44;;;;;;;5.40;4.50;;;;;;;14.00;83.18;99702.08;1748844;81;21007;-56
2022/06/11 03:52:10;;;;;;;8.13;4.83;;;;;;;14.01;83.74;99703.79;1748870;82;21245;-52
2022/06/11 03:54:37;;;;;;;5.05;4.55;;;;;;;14.06;83.32;99705.67;1748100;81;21042;-55
2022/06/11 03:57:04;;;;;;;8.40;4.90;;;;;;;14.11;83.06;99700.92;1748158;81;21015;-56
2022/06/11 03:59:31;;;;;;;7.78;4.67;;;;;;;14.13;82.86;99701.66;1748195;81;21484;-54
2022/06/11 04:01:56;;;;;;;8.73;4.73;;;;;;;14.15;83.17;99696.28;1748275;81;20960;-55
2022/06/11 04:04:23;;;;;;;7.47;4.37;;;;;;;14.19;83.06;99692.03;1748055;81;21047;-54
2022/06/11 04:06:53;;;;;;;10.55;4.72;;;;;;;14.24;82.52;99696.17;1748297;82;21000;-53
2022/06/11 04:09:27;;;;;;;4.62;4.22;;;;;;;14.25;82.37;99694.77;1748085;81;20975;-56
2022/06/11 04:11:53;;;;;;;7.30;4.25;;;;;;;14.30;82.07;99703.73;1748108;81;20976;-50
2022/06/11 04:14:20;;;;;;;8.53;4.85;;;;;;;14.32;82.12;99703.16;1748115;82;20987;-53
2022/06/11 04:16:51;;;;;;;5.62;4.78;;;;;;;14.31;82.42;99705.42;1748064;82;20996;-55
2022/06/11 04:19:27;;;;;;;8.63;4.42;;;;;;;14.34;82.38;99703.42;1748044;81;20988;-53
2022/06/11 04:21:55;;;;;;;5.87;4.70;;;;;;;14.36;83.04;99702.02;1748351;81;20992;-51
2022/06/11 04:24:22;;;;;;;5.78;4.37;;;;;;;14.36;83.04;99702.02;1748024;81;21522;-56
2022/06/11 04:26:52;;;;;;;8.25;5.00;;;;;;;14.39;83.14;99693.40;1748161;81;21043;-56
2022/06/11 04:29:22;;;;;;;5.40;4.85;;;;;;;14.45;82.66;99697.44;1748158;81;20995;-53
2022/06/11 04:31:52;;;;;;;9.40;4.67;;;;;;;14.48;82.60;99693.28;1748069;81;20991;-54
2022/06/11 04:34:20;;;;;;;5.97;4.70;;;;;;;14.53;82.54;99693.80;1748177;81;21034;-57
2022/06/11 04:36:46;;;;;;;;;;;;;;;14.61;82.70;99696.46;1750650;81;20976;-55
2022/06/11 04:39:15;;;;;;;6.42;4.72;;;;;;;14.68;83.34;99700.41;1748186;81;20105;-55
2022/06/11 04:41:43;;;;;;;7.12;5.17;;;;;;;14.75;83.31;99699.05;1748638;81;21485;-52
2022/06/11 04:44:09;;;;;;;13.78;5.78;;;;;;;14.82;83.83;99700.34;1761368;81;20996;-58
2022/06/11 04:46:35;;;;;;;7.78;5.05;;;;;;;14.91;83.28;99697.56;1761367;81;20985;-49
2022/06/11 04:49:01;;;;;;;9.98;5.78;;;;;;;14.97;83.42;99698.47;1761364;80;21003;-53
2022/06/11 04:51:27;;;;;;;6.92;5.65;;;;;;;15.03;83.36;99702.05;1761518;81;21461;-54
2022/06/11 04:53:53;;;;;;;7.75;5.08;;;;;;;15.09;83.09;99708.73;1761366;81;21519;-52
2022/06/11 04:56:23;;;;;;;17.45;6.12;;;;;;;15.14;82.90;99706.14;1761460;81;21542;-55
2022/06/11 04:58:50;;;;;;;10.75;5.40;;;;;;;15.18;83.05;99709.43;1761420;81;21003;-49
2022/06/11 05:01:17;;;;;;;7.47;5.45;;;;;;;15.21;82.96;99713.20;1761456;81;20999;-54
2022/06/11 05:03:43;;;;;;;13.08;6.28;;;;;;;15.23;83.78;99707.32;1761581;81;21499;-58
2022/06/11 05:06:11;;;;;;;9.53;5.92;;;;;;;15.29;83.90;99713.52;1761336;81;21523;-50
2022/06/11 05:08:37;;;;;;;11.28;5.58;;;;;;;15.34;84.42;99718.52;1761376;81;20994;-46
2022/06/11 05:11:05;;;;;;;10.82;5.62;;;;;;;15.39;84.31;99716.86;1761400;81;20991;-55
2022/06/11 05:13:31;;;;;;;;;;;;;;;15.46;84.45;99719.46;1764015;81;21375;-52
2022/06/11 05:15:58;;;;;;;11.08;5.83;;;;;;;15.49;85.25;99725.40;1761350;81;20367;-53
2022/06/11 05:18:26;;;;;;;6.58;5.33;;;;;;;15.55;84.40;99721.02;1761434;81;21007;-53
2022/06/11 05:20:52;;;;;;;8.15;5.58;;;;;;;15.59;84.85;99722.98;1761360;81;20987;-57
2022/06/11 05:23:18;;;;;;;8.13;5.40;;;;;;;15.66;84.17;99726.91;1761430;81;21030;-54
2022/06/11 05:25:46;;;;;;;6.17;5.10;;;;;;;15.74;83.84;99728.56;1761361;80;21046;-51
2022/06/11 05:28:17;;;;;;;7.75;5.95;;;;;;;15.83;83.80;99730.22;1761513;81;21002;-52
2022/06/11 05:30:43;;;;;;;9.45;6.10;;;;;;;15.89;83.52;99737.73;1759793;80;21479;-52
2022/06/11 05:33:09;;;;;;;8.20;5.37;;;;;;;15.98;83.56;99738.89;1761327;81;20983;-54
2022/06/11 05:35:36;;;;;;;6.28;5.28;;;;;;;16.04;83.60;99729.16;1761608;81;20998;-55
2022/06/11 05:38:06;;;;;;;9.23;4.83;;;;;;;16.11;83.34;99731.26;1761344;81;21030;-56
2022/06/11 05:40:38;;;;;;;5.28;4.78;;;;;;;16.17;83.20;99740.62;1761341;81;21007;-51
2022/06/11 05:43:05;;;;;;;6.90;4.15;;;;;;;16.24;82.94;99743.66;1754777;81;20996;-53
2022/06/11 05:45:36;;;;;;;7.03;4.40;;;;;;;16.26;82.60;99747.91;1748040;81;21520;-52
2022/06/11 05:48:05;;;;;;;6.72;4.30;;;;;;;16.29;82.13;99748.16;1748181;81;21485;-55
2022/06/11 05:50:35;;;;;;;6.12;4.65;;;;;;;16.29;81.47;99743.69;1747998;81;20999;-51
2022/06/11 05:53:03;;;;;;;6.15;4.15;;;;;;;16.32;81.34;99746.62;1748096;81;20996;-53
2022/06/11 05:55:33;;;;;;;5.92;3.58;;;;;;;16.37;81.10;99747.60;1748107;81;21528;-53
2022/06/11 05:58:02;;;;;;;6.90;3.60;;;;;;;16.43;80.69;99754.66;1747912;82;21113;-53
2022/06/11 06:00:29;;;;;;;6.05;3.10;;;;;;;16.47;80.67;99748.64;1747994;81;21623;-52
2022/06/11 06:02:55;;;;;;;3.80;3.00;;;;;;;16.50;79.85;99751.09;1748040;82;21026;-52
2022/06/11 06:05:25;;;;;;;6.95;2.95;;;;;;;16.52;79.47;99754.47;1747991;81;20995;-55
2022/06/11 06:07:51;;;;;;;3.22;2.40;;;;;;;16.54;77.55;99755.70;1747997;81;21523;-56
2022/06/11 06:10:18;;;;;;;9.43;3.05;;;;;;;16.61;77.26;99757.78;1747945;81;21386;-54
2022/06/11 06:12:44;;;;;;;5.20;1.77;;;;;;;16.63;72.32;99761.17;1748188;81;20992;-58
2022/06/11 06:15:17;;;;;;;2.75;1.70;;;;;;;16.67;72.02;99759.98;1748050;81;21038;-51
2022/06/11 06:17:43;;;;;;;2.45;1.67;;;;;;;16.68;69.49;99766.13;1747959;81;21011;-56
2022/06/11 06:20:13;;;;;;;2.45;1.40;;;;;;;16.75;71.41;99770.52;1747969;82;21031;-56
2022/06/11 06:22:40;;;;;;;7.95;1.65;;;;;;;16.74;70.70;99771.01;1747930;81;20995;-55
2022/06/11 06:25:08;;;;;;;6.35;1.57;;;;;;;16.77;68.66;99774.78;1747903;82;21472;-52
2022/06/11 06:27:34;;;;;;;2.55;1.25;;;;;;;16.79;66.62;99779.49;1747953;81;20991;-55
2022/06/11 06:30:00;;;;;;;4.33;1.42;;;;;;;16.86;66.86;99773.27;1747968;81;20988;-52
2022/06/11 06:32:26;;;;;;;3.70;1.57;;;;;;;16.90;67.59;99777.41;1747953;81;21411;-58
2022/06/11 06:34:52;;;;;;;3.42;1.47;;;;;;;16.93;66.02;99785.62;1748001;82;20987;-51
2022/06/11 06:37:17;;;;;;;1.55;1.32;;;;;;;16.98;66.89;99780.33;1747976;82;21019;-53
2022/06/11 06:39:43;;;;;;;2.90;1.42;;;;;;;17.02;67.27;99786.27;1747953;81;20991;-55
2022/06/11 06:42:09;;;;;;;11.22;1.67;;;;;;;17.08;66.49;99773.84;1747966;81;21003;-55
2022/06/11 06:44:35;;;;;;;3.37;1.80;;;;;;;17.07;65.08;99780.97;1747920;81;21125;-57
2022/06/11 06:47:01;;;;;;;2.92;1.47;;;;;;;17.07;64.78;99784.95;1748014;81;20964;-50
2022/06/11 06:49:27;;;;;;;3.33;1.22;;;;;;;17.07;63.42;99781.46;1748002;81;21067;-52
2022/06/11 06:51:53;;;;;;;3.25;1.50;;;;;;;17.13;64.46;99773.02;1748032;81;21060;-57
2022/06/11 06:54:19;;;;;;;3.70;2.10;;;;;;;17.16;64.51;99775.45;1747941;81;20964;-49
2022/06/11 06:56:45;;;;;;;1.35;1.25;;;;;;;17.20;64.52;99776.08;1747982;81;20967;-54
2022/06/11 06:59:11;;;;;;;5.75;1.65;;;;;;;17.23;64.63;99779.34;1737529;82;20960;-51
2022/06/11 07:01:38;;;;;;;3.35;1.67;;;;;;;17.30;65.13;99779.74;1748118;82;20952;-53
2022/06/11 07:04:05;;;;;;;5.05;1.55;;;;;;;17.34;63.53;99778.54;1748211;81;21456;-57
2022/06/11 07:06:34;;;;;;;7.15;1.35;;;;;;;17.39;63.85;99777.72;1748218;81;20983;-51
2022/06/11 07:09:01;;;;;;;3.05;1.22;;;;;;;17.41;61.93;99783.76;1747928;81;21026;-55
2022/06/11 07:11:27;;;;;;;6.22;1.60;;;;;;;17.50;60.22;99786.20;1748189;82;21452;-56
2022/06/11 07:13:52;;;;;;;7.97;1.27;;;;;;;17.54;60.45;99790.81;1748030;82;21426;-52
2022/06/11 07:16:23;;;;;;;6.87;1.45;;;;;;;17.58;59.59;99793.09;1747956;81;21031;-53
2022/06/11 07:18:54;;;;;;;3.65;1.15;;;;;;;17.62;60.87;99795.87;1748006;81;20984;-56
2022/06/11 07:21:25;;;;;;;7.42;1.55;;;;;;;17.67;58.53;99798.69;1747367;81;20984;-51
2022/06/11 07:23:55;;;;;;;2.47;1.37;;;;;;;17.73;59.24;99795.55;1747962;81;21797;-54
2022/06/11 07:26:29;;;;;;;5.75;1.32;;;;;;;17.74;58.82;99796.77;1747997;81;20983;-53
2022/06/11 07:29:01;;;;;;;5.35;1.25;;;;;;;17.85;60.03;99794.64;1748046;81;20986;-56
2022/06/11 07:31:30;;;;;;;4.42;1.40;;;;;;;17.90;58.58;99792.94;1748170;81;21423;-57
2022/06/11 07:33:58;;;;;;;6.67;1.50;;;;;;;17.98;58.59;99794.03;1748199;81;21035;-49
2022/06/11 07:36:23;;;;;;;;;;;;;;;18.05;57.82;99800.23;1750798;81;20960;-54
2022/06/11 07:38:49;;;;;;;2.67;1.17;;;;;;;18.07;56.82;99799.12;1748250;81;20142;-51
2022/06/11 07:41:15;;;;;;;10.65;1.80;;;;;;;18.10;56.61;99796.70;1748138;81;21097;-55
2022/06/11 07:43:41;;;;;;;4.55;1.25;;;;;;;18.18;57.83;99797.80;1748102;82;20977;-54
2022/06/11 07:46:07;;;;;;;5.15;1.52;;;;;;;18.23;56.86;99796.11;1748096;81;20991;-54
2022/06/11 07:48:33;;;;;;;3.80;1.07;;;;;;;18.31;56.76;99795.00;1748054;82;21302;-51
2022/06/11 07:50:59;;;;;;;4.65;1.52;;;;;;;18.37;56.32;99798.53;1748094;82;21034;-56
2022/06/11 07:53:25;;;;;;;6.80;1.75;;;;;;;18.45;56.50;99805.89;1748081;81;20980;-53
2022/06/11 07:55:54;;;;;;;4.37;1.60;;;;;;;18.56;56.95;99801.88;1748077;81;21030;-51
2022/06/11 07:58:25;;;;;;;6.78;1.60;;;;;;;18.57;53.82;99804.05;1748062;81;20980;-51
2022/06/11 08:00:53;;;;;;;5.50;1.50;;;;;;;18.64;55.17;99810.58;1748022;81;21477;-54
2022/06/11 08:03:20;;;;;;;3.92;1.60;;;;;;;18.70;55.30;99810.10;1748115;81;20987;-52
2022/06/11 08:05:47;;;;;;;9.03;1.67;;;;;;;18.79;55.59;99808.02;1748219;81;21031;-48
2022/06/11 08:08:14;;;;;;;5.87;1.55;;;;;;;18.85;54.77;99808.03;1748233;81;21000;-56
2022/06/11 08:10:43;;;;;;;6.60;1.67;;;;;;;18.95;54.89;99804.95;1748292;81;20995;-51
2022/06/11 08:13:10;;;;;;;5.90;1.42;;;;;;;19.05;54.49;99810.39;1748237;81;21319;-58
2022/06/11 08:15:38;;;;;;;7.87;1.70;;;;;;;19.14;54.38;99804.30;1748189;81;20968;-54
2022/06/11 08:18:04;;;;;;;5.47;1.62;;;;;;;19.24;54.54;99797.70;1748297;81;21132;-52
2022/06/11 08:20:34;;;;;;;6.45;1.52;;;;;;;19.32;53.85;99799.26;1748361;82;20975;-58
2022/06/11 08:23:01;;;;;;;5.20;1.65;;;;;;;19.39;53.63;99795.56;1748196;81;20988;-56
2022/06/11 08:25:28;;;;;;;12.80;2.58;;;;;;;19.42;52.94;99792.66;1748215;81;20991;-56
2022/06/11 08:27:54;;;;;;;5.53;1.60;;;;;;;19.52;52.44;99800.25;1748179;81;21030;-57
2022/06/11 08:30:24;;;;;;;9.48;1.60;;;;;;;19.59;52.53;99791.22;1748149;81;21536;-52
2022/06/11 08:32:51;;;;;;;5.00;1.67;;;;;;;19.76;52.40;99785.83;1748107;82;21031;-49
2022/06/11 08:35:22;;;;;;;6.90;1.98;;;;;;;19.89;51.27;99794.45;1748191;82;21067;-52
2022/06/11 08:37:48;;;;;;;4.97;1.45;;;;;;;20.05;52.98;99796.66;1748138;82;21434;-55
2022/06/11 08:40:38;;;;;;;3.37;1.60;;;;;;;20.21;52.50;99794.83;1748345;81;21626;-54
2022/06/11 08:43:27;;;;;;;5.60;1.55;;;;;;;20.40;51.65;99798.55;1748079;81;21521;-48
2022/06/11 08:46:10;;;;;;;4.15;1.62;;;;;;;20.42;51.22;99793.41;1748072;81;21011;-57
2022/06/11 08:49:08;;;;;;;8.98;1.50;;;;;;;20.61;51.32;99790.47;1748042;81;20964;-53
2022/06/11 08:51:45;;;;;;;6.87;1.55;;;;;;;20.76;51.09;99782.92;1748034;81;21480;-58
2022/06/11 08:54:25;;;;;;;5.00;1.50;;;;;;;20.96;50.67;99786.47;1748207;81;21015;-54
2022/06/11 08:57:34;;;;;;;5.42;1.35;;;;;;;21.12;50.46;99785.89;1742676;82;21026;-53
2022/06/11 09:00:08;;;;;;;4.87;1.05;;;;;;;21.26;50.45;99785.47;1748167;81;20976;-55
2022/06/11 09:03:02;;;;;;;6.30;1.27;;;;;;;21.35;49.62;99776.59;1748042;81;21536;-53
2022/06/11 09:05:52;;;;;;;3.72;1.35;;;;;;;21.54;49.54;99786.47;1747561;81;20945;-56
2022/06/11 09:08:43;;;;;;;4.83;1.80;;;;;;;21.69;48.87;99783.34;1748062;81;21020;-50
2022/06/11 09:11:21;;;;;;;3.65;1.30;;;;;;;21.93;48.88;99780.17;1733620;82;20961;-54
2022/06/11 09:14:01;;;;;;;5.15;1.62;;;;;;;22.31;49.80;99788.57;1747494;81;20957;-59
2022/06/11 09:16:56;;;;;;;4.83;1.40;;;;;;;22.43;47.63;99783.88;1731468;81;21536;-54
2022/06/11 09:19:46;;;;;;;5.85;1.20;;;;;;;22.47;47.22;99790.62;1747476;81;21453;-53
2022/06/11 09:22:27;;;;;;;3.42;1.25;;;;;;;22.72;47.12;99782.84;1747842;81;20999;-53
2022/06/11 09:25:39;;;;;;;3.55;1.50;;;;;;;22.91;46.35;99785.39;1725985;81;20988;-54
2022/06/11 09:28:26;;;;;;;4.67;1.30;;;;;;;22.99;45.70;99780.13;1747999;81;21007;-52
2022/06/11 09:31:01;;;;;;;3.12;1.30;;;;;;;23.41;46.85;99777.81;1747752;81;21430;-52
2022/06/11 09:33:40;;;;;;;4.42;1.47;;;;;;;23.89;45.87;99778.69;1747541;81;21366;-53
2022/06/11 09:36:10;;;;;;;3.12;1.10;;;;;;;24.06;44.70;99781.45;1747885;81;20972;-53
2022/06/11 09:39:09;;;;;;;1.90;1.22;;;;;;;24.12;44.34;99784.36;1747483;81;21422;-55
2022/06/11 09:41:57;;;;;;;3.37;1.57;;;;;;;24.32;43.64;99778.23;1739541;82;21498;-56
2022/06/11 09:44:45;;;;;;;3.58;1.60;;;;;;;24.91;42.95;99785.48;1725833;80;21198;-49
2022/06/11 09:47:16;;;;;;;4.08;1.32;;;;;;;25.22;41.76;99778.12;1709728;82;21372;-53
2022/06/11 09:50:15;;;;;;;4.30;1.27;;;;;;;25.97;43.48;99767.13;1689812;82;21483;-50
2022/06/11 09:52:55;;;;;;;3.52;1.12;;;;;;;26.32;40.84;99771.71;1715516;82;21482;-55
2022/06/11 09:55:44;;;;;;;2.50;1.30;;;;;;;26.90;41.93;99766.04;1714739;82;21508;-50
2022/06/11 09:58:47;;;;;;;4.35;1.15;;;;;;;27.20;38.72;99766.48;1715466;83;21143;-47
2022/06/11 10:01:20;;;;;;;3.62;1.20;;;;;;;27.50;38.88;99767.94;1715531;82;21024;-54
2022/06/11 10:04:08;;;;;;;3.25;1.40;;;;;;;27.82;38.26;99772.70;1715530;82;20986;-55
2022/06/11 10:06:48;;;;;;;2.72;1.50;;;;;;;27.82;37.11;99765.95;1690494;83;20973;-51
2022/06/11 10:09:31;;;;;;;4.35;1.27;;;;;;;27.84;37.04;99760.36;1715644;82;20999;-55
2022/06/11 10:12:20;;;;;;;3.98;1.12;;;;;;;28.49;36.94;99766.88;1715445;82;20970;-55
2022/06/11 10:14:57;;;;;;;5.20;1.57;;;;;;;28.32;35.56;99763.03;1715526;82;21045;-51
2022/06/11 10:18:10;;;;;;;4.22;1.57;;;;;;;28.13;35.71;99757.67;1719232;82;20989;-55
2022/06/11 10:20:43;;;;;;;2.85;1.10;;;;;;;27.63;33.97;99760.55;1716626;83;21453;-55
2022/06/11 10:23:33;;;;;;;4.92;1.20;;;;;;;27.31;35.14;99767.13;1716619;83;21019;-50
2022/06/11 10:26:10;;;;;;;4.17;1.25;;;;;;;28.12;36.35;99749.75;1716222;83;21022;-50
2022/06/11 10:28:53;;;;;;;2.83;1.15;;;;;;;28.20;36.14;99759.13;1716469;83;21630;-56
2022/06/11 10:31:40;;;;;;;4.78;1.17;;;;;;;27.94;35.57;99765.85;1715654;83;21460;-51
2022/06/11 10:34:19;;;;;;;5.12;1.25;;;;;;;28.28;36.53;99759.53;1697122;83;21034;-52
2022/06/11 10:37:17;;;;;;;4.87;1.40;;;;;;;28.31;34.09;99760.52;1716540;83;20936;-56
2022/06/11 10:40:09;;;;;;;4.28;1.20;;;;;;;28.12;33.49;99761.42;1716463;83;20967;-50
2022/06/11 10:42:43;;;;;;;4.20;1.40;;;;;;;28.31;34.07;99755.10;1716535;83;21010;-56
2022/06/11 10:45:15;;;;;;;3.70;1.60;;;;;;;28.23;34.81;99758.73;1728357;82;21020;-56
2022/06/11 10:47:48;;;;;;;2.35;1.00;;;;;;;28.08;35.12;99757.92;1731207;82;21555;-53
2022/06/11 10:50:30;;;;;;;3.17;1.17;;;;;;;28.36;34.74;99754.52;1731152;83;20991;-51
2022/06/11 10:53:19;;;;;;;6.50;1.57;;;;;;;28.78;34.78;99762.42;1714717;83;21023;-57
2022/06/11 10:55:56;;;;;;;3.65;1.75;;;;;;;28.33;34.46;99752.52;1731185;83;20991;-56
2022/06/11 10:58:48;;;;;;;6.78;1.47;;;;;;;28.81;34.36;99755.28;1714996;83;20991;-52
2022/06/11 11:01:44;;;;;;;2.58;1.20;;;;;;;29.27;33.89;99746.77;1730818;82;21631;-55
2022/06/11 11:04:39;;;;;;;5.60;1.50;;;;;;;29.43;33.16;99749.23;1731547;82;20952;-54
2022/06/11 11:07:20;;;;;;;3.10;1.47;;;;;;;28.66;31.93;99747.21;1731277;82;20975;-50
2022/06/11 11:09:47;;;;;;;6.12;1.50;;;;;;;28.43;32.99;99743.27;1731321;82;21440;-53
2022/06/11 11:12:21;;;;;;;2.50;1.30;;;;;;;28.82;34.33;99738.02;1731354;83;20971;-50
2022/06/11 11:14:59;;;;;;;4.67;1.65;;;;;;;29.12;33.53;99739.23;1726482;83;21024;-53
2022/06/11 11:17:28;;;;;;;3.52;1.25;;;;;;;29.61;33.02;99735.69;1729217;82;20975;-51
2022/06/11 11:22:57;;;;;;;2.60;1.62;;;;;;;30.26;31.99;99737.64;1731464;83;20991;-56
2022/06/11 11:25:31;;;;;;;4.70;1.10;;;;;;;30.22;31.48;99729.07;1731367;82;20983;-51
2022/06/11 11:27:58;;;;;;;1.75;1.00;;;;;;;30.10;30.37;99736.63;1714910;83;20979;-53
2022/06/11 11:30:39;;;;;;;3.05;1.02;;;;;;;29.37;31.36;99740.52;1731341;82;20975;-47
2022/06/11 11:33:24;;;;;;;6.58;1.30;;;;;;;29.26;31.61;99739.70;1731339;83;20987;-52
2022/06/11 11:36:20;;;;;;;4.28;1.35;;;;;;;28.94;32.19;99739.16;1729325;82;20971;-51
2022/06/11 11:39:16;;;;;;;3.00;1.37;;;;;;;29.17;32.31;99731.40;1731387;83;21096;-49
2022/06/11 11:42:08;;;;;;;6.30;1.45;;;;;;;29.68;32.50;99727.91;1731454;81;20995;-50
2022/06/11 11:44:41;;;;;;;5.00;1.30;;;;;;;29.76;31.56;99731.53;1731262;82;21031;-55
2022/06/11 11:47:24;;;;;;;4.12;1.45;;;;;;;30.01;31.14;99715.62;1731344;82;20963;-51
2022/06/11 11:49:59;;;;;;;4.90;1.37;;;;;;;30.31;31.15;99719.38;1731228;82;21147;-54
2022/06/11 11:52:27;;;;;;;4.03;1.50;;;;;;;30.01;30.92;99723.75;1730781;82;21047;-49
2022/06/11 11:55:18;;;;;;;4.97;1.50;;;;;;;28.97;30.93;99728.48;1731422;82;21038;-48
2022/06/11 11:58:08;;;;;;;5.05;1.40;;;;;;;28.46;31.91;99727.50;1731105;82;20995;-52
2022/06/11 12:00:51;;;;;;;2.92;1.20;;;;;;;28.38;33.12;99726.27;1724312;82;20979;-52
2022/06/11 12:03:25;;;;;;;2.62;1.12;;;;;;;28.45;32.39;99729.03;1731277;83;21035;-50
2022/06/11 12:05:57;;;;;;;7.92;1.98;;;;;;;28.62;32.92;99733.23;1729350;83;21503;-54
2022/06/11 12:08:31;;;;;;;2.90;1.32;;;;;;;28.65;32.58;99731.50;1731336;83;21026;-53
2022/06/11 12:11:01;;;;;;;4.05;1.57;;;;;;;28.62;33.24;99729.17;1731286;82;21006;-53